createdAt,value
2022-10-18T00:07:46.769Z,14.50
2022-10-18T00:12:48.467Z,14.50
2022-10-18T00:17:50.220Z,15.10
2022-10-18T00:22:51.950Z,14.30
2022-10-18T00:32:55.672Z,14.40
2022-10-18T00:43:01.964Z,14.30
2022-10-18T00:48:04.750Z,14.60
2022-10-18T00:53:15.155Z,14.30
2022-10-18T00:58:19.836Z,14.30
2022-10-18T01:08:57.135Z,14.20
2022-10-18T01:14:26.385Z,14.20
2022-10-18T01:19:49.737Z,14.10
2022-10-18T01:24:57.150Z,14.10
2022-10-18T01:30:26.348Z,14.00
2022-10-18T01:35:36.354Z,14.00
2022-10-18T01:40:41.067Z,14.00
2022-10-18T01:45:42.878Z,14.10
2022-10-18T01:50:48.006Z,14.40
2022-10-18T01:56:20.896Z,14.20
2022-10-18T02:01:48.033Z,14.30
2022-10-18T02:06:57.854Z,14.40
2022-10-18T02:12:01.673Z,14.40
2022-10-18T02:17:07.854Z,14.40
2022-10-18T02:22:12.058Z,14.40
2022-10-18T02:27:14.204Z,14.60
2022-10-18T02:32:33.967Z,14.40
2022-10-18T02:37:38.857Z,14.50
2022-10-18T02:42:47.615Z,14.40
2022-10-18T02:47:49.355Z,14.40
2022-10-18T02:52:51.031Z,15.30
2022-10-18T02:57:52.692Z,14.40
2022-10-18T03:07:57.780Z,14.50
2022-10-18T03:12:59.495Z,14.40
2022-10-18T03:18:01.196Z,14.50
2022-10-18T03:23:03.328Z,14.40
2022-10-18T03:28:05.173Z,14.30
2022-10-18T03:33:07.437Z,14.40
2022-10-18T03:43:11.312Z,14.30
2022-10-18T03:48:12.983Z,14.40
2022-10-18T03:53:14.669Z,14.40
2022-10-18T03:58:16.374Z,16.50
2022-10-18T04:03:19.245Z,14.50
2022-10-18T04:13:23.127Z,14.50
2022-10-18T04:18:24.810Z,14.40
2022-10-18T04:23:26.572Z,14.50
2022-10-18T04:28:28.283Z,14.50
2022-10-18T04:33:29.936Z,14.50
2022-10-18T04:38:31.572Z,14.50
2022-10-18T04:43:33.268Z,14.90
2022-10-18T04:48:35.163Z,14.30
2022-10-18T04:53:36.832Z,14.30
2022-10-18T04:58:38.565Z,14.40
2022-10-18T05:03:40.214Z,14.60
2022-10-18T05:08:41.884Z,14.60
2022-10-18T05:13:45.986Z,16.00
2022-10-18T05:18:50.209Z,12.90
2022-10-18T05:23:56.075Z,16.10
2022-10-18T05:28:57.828Z,14.50
2022-10-18T05:33:59.618Z,14.50
2022-10-18T05:39:04.969Z,16.20
2022-10-18T05:44:07.069Z,14.40
2022-10-18T05:49:11.698Z,14.50
2022-10-18T05:54:14.100Z,14.70
2022-10-18T05:59:15.816Z,14.50
2022-10-18T06:04:17.957Z,14.50
2022-10-18T06:09:19.661Z,17.20
2022-10-18T06:14:21.321Z,14.40
2022-10-18T06:19:23.890Z,14.50
2022-10-18T06:24:26.622Z,14.50
2022-10-18T06:29:28.313Z,14.90
2022-10-18T06:39:32.254Z,14.40
2022-10-18T06:54:38.087Z,14.60
2022-10-18T06:59:39.774Z,14.90
2022-10-18T07:04:42.396Z,15.00
2022-10-18T07:09:46.018Z,15.30
2022-10-18T07:14:47.791Z,15.20
2022-10-18T07:19:49.556Z,15.80
2022-10-18T07:24:51.228Z,15.70
2022-10-18T07:29:52.873Z,17.70
2022-10-18T07:34:54.717Z,17.10
2022-10-18T07:39:56.359Z,16.70
2022-10-18T07:44:58.008Z,16.00
2022-10-18T07:49:59.686Z,18.20
2022-10-18T07:55:01.405Z,17.90
2022-10-18T08:00:03.591Z,16.40
2022-10-18T08:10:08.046Z,16.60
2022-10-18T08:15:10.162Z,16.80
2022-10-18T08:20:29.504Z,16.90
2022-10-18T08:25:32.898Z,17.00
2022-10-18T08:30:36.014Z,17.30
2022-10-18T08:35:37.752Z,17.60
2022-10-18T08:40:44.448Z,17.80
2022-10-18T08:45:46.154Z,17.90
2022-10-18T08:50:49.793Z,18.00
2022-10-18T08:55:58.480Z,18.20
2022-10-18T09:01:18.140Z,19.30
2022-10-18T09:06:30.700Z,20.00
2022-10-18T09:11:38.984Z,20.40
2022-10-18T09:17:04.399Z,20.10
2022-10-18T09:22:14.539Z,20.10
2022-10-18T09:27:22.270Z,19.90
2022-10-18T09:32:48.721Z,20.20
2022-10-18T09:37:53.221Z,19.80
2022-10-18T09:43:21.880Z,19.80
2022-10-18T09:48:36.800Z,19.60
2022-10-18T09:54:15.854Z,19.90
2022-10-18T09:59:34.259Z,20.40
2022-10-18T10:04:35.922Z,21.00
2022-10-18T10:09:48.494Z,21.20
2022-10-18T10:14:50.292Z,21.80
2022-10-18T10:20:16.755Z,21.70
2022-10-18T10:25:30.318Z,21.80
2022-10-18T10:30:34.924Z,21.60
2022-10-18T10:35:56.594Z,21.30
2022-10-18T10:40:59.385Z,22.20
2022-10-18T10:46:11.858Z,22.30
2022-10-18T10:51:15.495Z,21.80
2022-10-18T10:56:44.678Z,21.70
2022-10-18T11:01:50.211Z,21.60
2022-10-18T11:07:09.487Z,21.50
2022-10-18T11:12:17.891Z,23.00
2022-10-18T11:17:57.183Z,23.90
2022-10-18T11:23:24.616Z,28.70
2022-10-18T11:34:08.285Z,22.80
2022-10-18T11:45:49.133Z,25.10
2022-10-18T11:52:09.887Z,25.70
2022-10-18T11:57:48.945Z,24.40
2022-10-18T12:08:10.059Z,22.40
2022-10-18T12:13:24.385Z,21.60
2022-10-18T12:24:06.464Z,21.40
2022-10-18T12:29:41.139Z,22.30
2022-10-18T12:35:03.407Z,22.60
2022-10-18T12:45:37.345Z,22.30
2022-10-18T12:50:46.161Z,21.70
2022-10-18T12:55:54.740Z,21.20
2022-10-18T13:01:03.605Z,20.80
2022-10-18T13:11:37.746Z,21.20
2022-10-18T13:22:30.574Z,25.30
2022-10-18T13:27:55.689Z,29.10
2022-10-18T13:33:24.138Z,29.30
2022-10-18T13:44:01.829Z,29.90
2022-10-18T13:49:22.936Z,27.40
2022-10-18T13:54:57.169Z,26.40
2022-10-18T14:00:21.179Z,24.40
2022-10-18T14:11:02.450Z,22.80
2022-10-18T14:16:23.796Z,22.50
2022-10-18T14:21:34.204Z,21.90
2022-10-18T14:36:48.113Z,20.90
2022-10-18T14:41:54.627Z,22.20
2022-10-18T14:47:18.077Z,21.30
2022-10-18T14:52:35.260Z,21.00
2022-10-18T15:07:49.266Z,20.30
2022-10-18T15:13:08.651Z,20.20
2022-10-18T15:18:22.811Z,20.40
2022-10-18T15:23:31.317Z,20.30
2022-10-18T15:28:40.869Z,20.10
2022-10-18T15:33:42.671Z,20.00
2022-10-18T15:38:47.574Z,19.90
2022-10-18T15:43:51.635Z,19.80
2022-10-18T15:48:53.415Z,19.90
2022-10-18T15:53:55.196Z,19.80
2022-10-18T15:58:58.259Z,19.80
2022-10-18T16:04:01.553Z,19.70
2022-10-18T16:09:03.646Z,19.50
2022-10-18T16:14:05.360Z,19.40
2022-10-18T16:19:07.917Z,19.20
2022-10-18T16:24:09.659Z,19.00
2022-10-18T16:29:19.308Z,19.00
2022-10-18T16:34:22.679Z,18.90
2022-10-18T16:39:24.503Z,18.80
2022-10-18T16:44:26.236Z,18.80
2022-10-18T16:49:27.984Z,18.80
2022-10-18T16:54:29.688Z,18.70
2022-10-18T16:59:32.028Z,18.70
2022-10-18T17:04:33.883Z,18.60
2022-10-18T17:09:36.905Z,18.60
2022-10-18T17:14:38.585Z,18.60
2022-10-18T17:19:40.274Z,18.60
2022-10-18T17:24:42.047Z,18.40
2022-10-18T17:29:43.822Z,18.50
2022-10-18T17:34:45.479Z,18.40
2022-10-18T17:39:47.408Z,18.40
2022-10-18T17:44:49.398Z,18.30
2022-10-18T17:49:52.085Z,18.30
2022-10-18T17:54:53.724Z,18.30
2022-10-18T17:59:56.272Z,18.20
2022-10-18T18:04:58.008Z,18.10
2022-10-18T18:09:59.763Z,18.10
2022-10-18T18:15:01.541Z,18.00
2022-10-18T18:20:03.848Z,18.00
2022-10-18T18:25:06.086Z,17.90
2022-10-18T18:30:08.519Z,17.90
2022-10-18T18:35:10.183Z,17.90
2022-10-18T18:40:11.867Z,17.90
2022-10-18T18:45:13.542Z,17.80
2022-10-18T18:50:15.267Z,17.80
2022-10-18T18:55:16.998Z,17.80
2022-10-18T19:00:18.693Z,17.80
2022-10-18T19:05:20.489Z,17.80
2022-10-18T19:15:24.331Z,17.70
2022-10-18T19:25:28.183Z,17.60
2022-10-18T19:30:29.871Z,17.50
2022-10-18T19:40:33.614Z,17.50
2022-10-18T19:45:35.284Z,17.40
2022-10-18T19:50:36.975Z,17.30
2022-10-18T19:55:38.746Z,17.30
2022-10-18T20:00:40.393Z,17.30
2022-10-18T20:05:42.031Z,17.30
2022-10-18T20:15:50.976Z,17.00
2022-10-18T20:25:56.536Z,16.80
2022-10-18T20:31:01.356Z,16.70
2022-10-18T20:36:05.982Z,16.70
2022-10-18T20:41:15.215Z,16.60
2022-10-18T20:46:17.920Z,16.50
2022-10-18T20:51:20.571Z,16.80
2022-10-18T20:56:25.223Z,16.30
2022-10-18T21:01:32.086Z,17.80
2022-10-18T21:06:37.954Z,17.00
2022-10-18T21:11:42.058Z,17.10
2022-10-18T21:16:44.486Z,16.00
2022-10-18T21:21:49.540Z,16.10
2022-10-18T21:31:55.560Z,16.00
2022-10-18T21:36:57.242Z,15.90
2022-10-18T21:41:59.023Z,15.90
2022-10-18T21:47:00.785Z,13.70
2022-10-18T21:52:03.699Z,15.70
2022-10-18T21:57:05.418Z,15.80
2022-10-18T22:02:07.045Z,17.20
2022-10-18T22:07:08.734Z,16.20
2022-10-18T22:17:12.771Z,15.60
2022-10-18T22:22:14.397Z,16.80
2022-10-18T22:27:16.136Z,15.50
2022-10-18T22:32:17.774Z,15.50
2022-10-18T22:37:19.443Z,15.60
2022-10-18T22:42:21.189Z,15.60
2022-10-18T22:47:24.194Z,15.70
2022-10-18T22:52:25.852Z,15.70
2022-10-18T22:57:29.760Z,15.50
2022-10-18T23:02:31.816Z,15.60
2022-10-18T23:07:33.668Z,15.80
2022-10-18T23:12:35.634Z,15.70
2022-10-18T23:17:38.086Z,15.70
2022-10-18T23:22:39.723Z,15.70
2022-10-18T23:37:45.823Z,15.70
2022-10-18T23:52:51.633Z,15.30
